KSQL/SQL METAR and TAF weather

Enter ICAO airport designator
Station Type Date Time Source
KSQL METAR 2021/10/24 21:55 UTC NOAA

KSQL 242155Z 18018G30KT 2SM BKN027 OVC035 18/15 A2959


Station Type Date Time Source
KSQL Decoded METAR 2021/10/24 21:55 UTC NOAA

San Carlos Airport, CA, United States (KSQL) 37-31N 122-15W
Oct 24, 2021 - 05:55 PM EDT / 2021.10.24 2155 UTC
Wind: from the S (180 degrees) at 21 MPH (18 KT) gusting to 35 MPH (30 KT):0
Visibility: 2 mile(s):0
Sky conditions: overcast
Temperature: 64 F (18 C)
Dew Point: 59 F (15 C)
Relative Humidity: 82%
Pressure (altimeter): 29.59 in. Hg (1002 hPa)
ob: KSQL 242155Z 18018G30KT 2SM BKN027 OVC035 18/15 A2959
cycle: 22

Station Type Date Time Source
KSQL TAF UTC NOAA

Error!

Example: see airport list